createdAt,value
2018-11-12T01:12:17.732Z,1.00
2018-11-12T01:14:46.493Z,1.20
2018-11-12T01:17:15.244Z,0.90
2018-11-12T01:19:44.047Z,0.80
2018-11-12T01:22:12.820Z,0.80
2018-11-12T01:24:41.568Z,1.37
2018-11-12T01:27:10.326Z,1.20
2018-11-12T01:29:39.115Z,2.03
2018-11-12T01:32:07.921Z,0.90
2018-11-12T01:34:36.682Z,0.90
2018-11-12T01:37:05.559Z,2.83
2018-11-12T01:39:34.250Z,0.70
2018-11-12T01:42:03.018Z,0.70
2018-11-12T01:44:32.000Z,1.03
2018-11-12T01:47:00.854Z,0.70
2018-11-12T01:49:29.643Z,0.80
2018-11-12T01:51:58.484Z,0.80
2018-11-12T01:54:28.271Z,0.80
2018-11-12T01:56:57.144Z,0.90
2018-11-12T01:59:25.881Z,1.93
2018-11-12T02:01:54.633Z,2.00
2018-11-12T02:04:23.377Z,1.03
2018-11-12T02:06:52.171Z,0.80
2018-11-12T02:09:20.958Z,0.90
2018-11-12T02:11:49.652Z,0.90
2018-11-12T02:14:19.169Z,1.07
2018-11-12T02:16:48.623Z,0.80
2018-11-12T02:19:17.486Z,0.70
2018-11-12T02:21:46.354Z,1.00
2018-11-12T02:24:15.062Z,0.90
2018-11-12T02:26:43.899Z,1.43
2018-11-12T02:29:12.550Z,1.13
2018-11-12T02:31:42.365Z,0.80
2018-11-12T02:34:11.683Z,0.80
2018-11-12T02:36:40.478Z,0.80
2018-11-12T02:39:10.380Z,0.90
2018-11-12T02:41:39.206Z,0.80
2018-11-12T02:44:08.858Z,1.00
2018-11-12T02:46:38.031Z,0.97
2018-11-12T02:49:06.948Z,1.27
2018-11-12T02:51:35.672Z,0.90
2018-11-12T02:54:04.920Z,1.67
2018-11-12T02:56:34.452Z,0.70
2018-11-12T02:59:03.405Z,1.50
2018-11-12T03:01:32.275Z,0.70
2018-11-12T03:04:01.091Z,1.10
2018-11-12T03:06:29.866Z,0.90
2018-11-12T03:09:01.751Z,0.80
2018-11-12T03:11:30.592Z,4.10
2018-11-12T03:13:59.258Z,0.70
2018-11-12T03:16:28.027Z,1.87
2018-11-12T03:18:56.738Z,3.13
2018-11-12T03:21:25.381Z,0.80
2018-11-12T03:23:54.058Z,1.23
2018-11-12T03:26:22.872Z,1.10
2018-11-12T03:28:51.716Z,0.80
2018-11-12T03:31:20.479Z,0.83
2018-11-12T03:33:50.465Z,0.80
2018-11-12T03:36:19.371Z,1.20
2018-11-12T03:38:48.129Z,1.10
2018-11-12T03:41:17.427Z,0.73
2018-11-12T03:43:46.236Z,1.27
2018-11-12T03:46:14.947Z,1.50
2018-11-12T03:48:43.998Z,3.83
2018-11-12T03:51:19.426Z,1.23
2018-11-12T03:53:48.588Z,0.90
2018-11-12T03:56:18.063Z,1.00
2018-11-12T03:58:47.435Z,0.80
2018-11-12T04:01:16.928Z,1.70
2018-11-12T04:03:47.384Z,1.37
2018-11-12T04:06:17.029Z,0.80
2018-11-12T04:08:46.973Z,2.00
2018-11-12T04:11:16.867Z,0.70
2018-11-12T04:13:46.744Z,1.10
2018-11-12T04:16:16.345Z,3.27
2018-11-12T04:18:46.188Z,1.03
2018-11-12T04:21:15.829Z,1.17
2018-11-12T04:23:45.363Z,0.73
2018-11-12T04:26:14.531Z,0.80
2018-11-12T04:28:43.882Z,1.03
2018-11-12T04:31:13.050Z,1.33
2018-11-12T04:33:42.629Z,1.27
2018-11-12T04:36:12.155Z,18.97
2018-11-12T04:38:41.533Z,1.13
2018-11-12T07:16:58.753Z,1.30
2018-11-12T07:19:34.717Z,1.93
2018-11-12T07:22:03.657Z,2.80
2018-11-12T07:24:34.381Z,1.57
2018-11-12T07:27:03.465Z,2.90
2018-11-12T07:29:32.411Z,1.80
2018-11-12T07:32:01.292Z,1.70
2018-11-12T07:34:30.263Z,1.97
2018-11-12T07:37:00.176Z,4.30
2018-11-12T07:39:29.019Z,2.30
2018-11-12T07:41:58.092Z,2.67
2018-11-12T07:44:26.918Z,1.97
2018-11-12T07:46:55.737Z,4.20
2018-11-12T07:49:24.639Z,3.97
2018-11-12T07:51:53.434Z,2.00
2018-11-12T07:54:22.363Z,2.93
2018-11-12T07:56:51.373Z,3.50
2018-11-12T07:59:20.192Z,4.10
2018-11-12T08:01:49.127Z,2.73
2018-11-12T08:04:17.959Z,4.10
2018-11-12T08:06:46.837Z,2.70
2018-11-12T08:09:15.667Z,2.70
2018-11-12T08:11:45.085Z,4.43
2018-11-12T08:14:14.144Z,2.80
2018-11-12T08:16:43.227Z,3.17
2018-11-12T08:19:12.094Z,7.30
2018-11-12T08:21:40.960Z,2.50
2018-11-12T08:24:09.920Z,3.40
2018-11-12T08:26:38.932Z,3.27
2018-11-12T08:29:07.758Z,3.83
2018-11-12T08:31:36.533Z,3.50
2018-11-12T08:34:05.733Z,4.50
2018-11-12T08:36:34.655Z,5.33
2018-11-12T08:39:03.873Z,5.07
2018-11-12T08:41:32.806Z,3.20
2018-11-12T08:44:01.572Z,3.00
2018-11-12T08:46:30.341Z,5.10
2018-11-12T08:48:59.271Z,4.00
2018-11-12T08:51:28.359Z,4.57
2018-11-12T08:53:57.133Z,3.43
2018-11-12T08:56:26.013Z,6.03
2018-11-12T08:58:54.828Z,7.80
2018-11-12T09:01:23.751Z,3.27
2018-11-12T09:03:52.749Z,3.30
2018-11-12T09:06:21.713Z,2.73
2018-11-12T09:08:50.488Z,2.60
2018-11-12T09:11:19.314Z,3.87
2018-11-12T09:13:48.314Z,3.27
2018-11-12T09:16:17.054Z,3.17
2018-11-12T09:18:45.876Z,5.23
2018-11-12T09:21:14.770Z,5.83
2018-11-12T09:23:43.631Z,3.87
2018-11-12T09:26:12.666Z,2.33
2018-11-12T09:28:41.454Z,3.47
2018-11-12T09:31:11.292Z,3.10
2018-11-12T09:33:39.222Z,3.40
2018-11-12T09:36:08.093Z,2.90
2018-11-12T09:38:36.930Z,4.67
2018-11-12T09:41:06.305Z,3.23
2018-11-12T09:43:35.038Z,3.83
2018-11-12T09:46:03.847Z,3.40
2018-11-12T09:48:32.767Z,3.13
2018-11-12T09:51:01.649Z,4.40
2018-11-12T09:53:30.355Z,5.30
2018-11-12T09:55:59.322Z,13.10
2018-11-12T09:58:28.172Z,4.30
2018-11-12T10:00:57.497Z,6.60
2018-11-12T10:03:28.248Z,4.77
2018-11-12T10:05:59.454Z,4.13
2018-11-12T10:08:34.668Z,4.23
2018-11-12T10:11:04.436Z,7.70
2018-11-12T10:13:32.933Z,5.70
2018-11-12T10:16:03.098Z,4.37
2018-11-12T10:18:29.181Z,6.80
2018-11-12T10:20:58.104Z,7.00
2018-11-12T10:23:26.942Z,4.63
2018-11-12T10:25:55.828Z,5.40
2018-11-12T10:28:24.890Z,3.53
2018-11-12T10:30:53.693Z,3.97
2018-11-12T10:33:23.582Z,3.13
2018-11-12T10:35:52.787Z,4.17
2018-11-12T10:38:21.602Z,3.80
2018-11-12T10:40:50.573Z,3.10
2018-11-12T10:43:19.468Z,3.50
2018-11-12T10:45:48.295Z,4.20
2018-11-12T10:48:17.239Z,4.20
2018-11-12T10:50:46.322Z,3.37
2018-11-12T10:53:15.106Z,2.97
2018-11-12T10:55:44.095Z,6.17
2018-11-12T10:58:13.099Z,4.23
2018-11-12T11:00:47.582Z,4.13
2018-11-12T11:03:21.983Z,6.10
2018-11-12T11:05:52.409Z,3.03
2018-11-12T11:08:21.567Z,11.83
2018-11-12T11:10:50.338Z,3.73
2018-11-12T11:13:19.113Z,3.00
2018-11-12T11:15:48.052Z,2.50
2018-11-12T11:18:16.902Z,3.53
2018-11-12T11:20:45.727Z,4.10
2018-11-12T11:23:14.481Z,2.83
2018-11-12T11:25:43.440Z,4.33
2018-11-12T11:28:12.322Z,4.37
2018-11-12T11:30:41.155Z,5.00
2018-11-12T11:33:10.398Z,3.33
2018-11-12T11:35:39.172Z,3.40
2018-11-12T11:38:08.080Z,3.97
2018-11-12T11:40:37.080Z,10.20
2018-11-12T11:43:06.047Z,4.33
2018-11-12T11:45:34.952Z,13.03
2018-11-12T11:48:03.914Z,4.53
2018-11-12T11:50:32.876Z,4.53
2018-11-12T11:53:01.925Z,4.10
2018-11-12T11:55:30.743Z,3.40
2018-11-12T11:57:59.610Z,5.53
2018-11-12T12:00:29.405Z,4.50
2018-11-12T12:02:59.165Z,7.10
2018-11-12T12:05:28.848Z,5.37
2018-11-12T12:07:58.394Z,4.43
2018-11-12T12:10:27.291Z,6.50
2018-11-12T12:12:56.173Z,5.83
2018-11-12T12:15:25.182Z,6.10
2018-11-12T12:17:54.167Z,4.70
2018-11-12T12:20:24.380Z,8.00
2018-11-12T12:22:53.945Z,7.43
2018-11-12T12:25:22.878Z,8.03
2018-11-12T12:27:52.305Z,7.67
2018-11-12T12:30:25.137Z,7.33
2018-11-12T12:32:55.015Z,10.10
2018-11-12T12:35:24.022Z,14.13
2018-11-12T12:37:53.192Z,13.47
2018-11-12T12:40:23.081Z,12.23
2018-11-12T12:42:52.142Z,13.17
2018-11-12T12:45:23.663Z,9.97
2018-11-12T12:47:53.582Z,12.03
2018-11-12T12:50:22.835Z,16.83
2018-11-12T12:52:51.848Z,16.50
2018-11-12T12:55:20.762Z,16.77
2018-11-12T12:57:49.909Z,17.70
2018-11-12T13:00:20.657Z,15.10
2018-11-12T13:02:49.572Z,13.60
2018-11-12T13:05:18.511Z,14.97
2018-11-12T13:07:47.375Z,14.40
2018-11-12T13:10:18.532Z,12.67
2018-11-12T15:34:56.196Z,4.77
2018-11-12T15:37:25.090Z,4.00
2018-11-12T15:40:04.724Z,4.63
2018-11-12T15:42:33.818Z,5.63
2018-11-12T15:45:07.371Z,6.23
2018-11-12T15:47:36.200Z,5.13
2018-11-12T15:50:09.911Z,6.27
2018-11-12T15:52:38.936Z,6.13
2018-11-12T17:29:38.327Z,8.67
2018-11-12T17:32:07.852Z,7.83
2018-11-12T17:34:36.889Z,10.57
2018-11-12T17:37:06.278Z,8.50
2018-11-12T17:39:35.201Z,13.23
2018-11-12T17:42:04.078Z,10.30
2018-11-12T17:44:32.842Z,7.83
2018-11-12T17:47:01.899Z,7.27
2018-11-12T17:49:31.005Z,7.50
2018-11-12T17:51:59.820Z,6.40
2018-11-12T17:54:28.935Z,6.23
2018-11-12T17:56:57.734Z,7.00
2018-11-12T17:59:26.593Z,8.23
2018-11-12T18:01:55.415Z,6.33
2018-11-12T18:04:24.377Z,5.40
2018-11-12T18:06:53.195Z,6.97
2018-11-12T18:09:22.707Z,7.40
2018-11-12T18:11:51.650Z,5.87
2018-11-12T18:14:20.605Z,7.70
2018-11-12T18:16:49.266Z,6.30
2018-11-12T18:19:18.129Z,5.40
2018-11-12T18:21:47.084Z,6.40
2018-11-12T18:24:24.577Z,5.90
2018-11-12T18:26:53.496Z,4.73
2018-11-12T18:29:22.964Z,3.53
2018-11-12T18:31:52.788Z,6.33
2018-11-12T18:34:22.726Z,5.67
2018-11-12T18:36:51.866Z,4.63
2018-11-12T18:39:20.811Z,5.10
2018-11-12T18:41:49.652Z,6.10
2018-11-12T18:45:16.208Z,2.83
2018-11-12T18:47:57.439Z,3.57
